This is the latest recevied weather packets stored in our database for station/object N8HON. If no packets are shown the sender has not sent any weather packets the latest 10 day(s).
| Time | Temp. | Humidity | Pressure | Rain* | Wind** | Luminosity | Snow |
|---|---|---|---|---|---|---|---|
| 1777850615 | 11.11° C | 41% | 1013.1 hPa | 0 mm | - | 23 W/m² | - |
| 1777850313 | 11.11° C | 41% | 1012.8 hPa | 0 mm | - | 24 W/m² | - |
| 1777850010 | 11.11° C | 40% | 1012.9 hPa | 0 mm | - | 26 W/m² | - |
| 1777849705 | 11.67° C | 40% | 1012.7 hPa | 0 mm | - | 28 W/m² | - |
| 1777849403 | 11.67° C | 38% | 1012.7 hPa | 0 mm | - | 29 W/m² | - |
| 1777849100 | 11.67° C | 40% | 1012.8 hPa | 0 mm | - | 30 W/m² | - |
| 1777848796 | 11.67° C | 39% | 1012.9 hPa | 0 mm | - | 31 W/m² | - |
| 1777848493 | 12.22° C | 38% | 1012.6 hPa | 0 mm | - | 33 W/m² | - |
| 1777848190 | 12.22° C | 36% | 1012.8 hPa | 0 mm | - | 34 W/m² | - |
| 1777847888 | 12.22° C | 34% | 1012.8 hPa | 0 mm | - | 41 W/m² | - |
| 1777847585 | 12.22° C | 40% | 1012.6 hPa | 0 mm | - | 38 W/m² | - |
| 1777847281 | 12.22° C | 40% | 1012.6 hPa | 0 mm | - | 37 W/m² | - |
| 1777846979 | 12.78° C | 37% | 1012.9 hPa | 0 mm | - | 38 W/m² | - |
| 1777846677 | 12.78° C | 34% | 1012.8 hPa | 0 mm | - | 39 W/m² | - |
| 1777846375 | 12.78° C | 34% | 1012.8 hPa | 0 mm | - | 39 W/m² | - |
| 1777846071 | 12.78° C | 37% | 1012.4 hPa | 0 mm | - | 41 W/m² | - |
| 1777845768 | 13.33° C | 34% | 1012.6 hPa | 0 mm | - | 42 W/m² | - |
| 1777845465 | 13.33° C | 34% | 1012.7 hPa | 0 mm | - | 43 W/m² | - |
| 1777845162 | 13.33° C | 34% | 1012.6 hPa | 0 mm | - | 62 W/m² | - |
| 1777844860 | 14.44° C | 32% | 1012.5 hPa | 0 mm | - | 188 W/m² | - |
| 1777844556 | 15° C | 31% | 1012.7 hPa | 0 mm | - | 243 W/m² | - |
| 1777844255 | 15° C | 33% | 1012.7 hPa | 0 mm | - | 300 W/m² | - |
| 1777843952 | 15° C | 30% | 1012.7 hPa | 0 mm | - | 348 W/m² | - |
| 1777843648 | 15° C | 32% | 1012.8 hPa | 0 mm | - | 382 W/m² | - |
| 1777843346 | 14.44° C | 31% | 1012.9 hPa | 0 mm | - | 373 W/m² | - |
* Rain latest hour (hover to see other rain measurements)
** Current wind speed in m/s (hover to see current wind gust speed)